Salt Lake City, Utah
Traffic Map
Current Weather Conditions
Salt Lake City, Utah
Broken Clouds
Broken Clouds

Feels Like: 6°
Wind Chill: Ceiling: 8000
Heat Index: Visibility: 10mi
Dew Point: Wind: 8mph
Humidity: 66% Direction: 330° (NNW)
Pressure: 30.14in Gusts: 0mph
Raw Report DataKSLC 270653Z 33007KT 10SM BKN080 08/02 A3014 RMK AO2 SLP194 T00830022 401110039 $
Traffic Incident Summary
Active as of:
Severity:
Category:
InformationThere was an issue retrieving the traffic information for this location. Please try a different location or try again shortly.
Advertisements
Track Severe Weather on mobile